sensor_id;sensor_type;location;lat;lon;timestamp;temperature;humidity
34644;DHT22;26931;43.498;-1.506;2023-02-01T00:01:40;9.30;99.10
34644;DHT22;26931;43.498;-1.506;2023-02-01T00:04:06;9.40;99.20
34644;DHT22;26931;43.498;-1.506;2023-02-01T00:06:32;9.30;99.20
34644;DHT22;26931;43.498;-1.506;2023-02-01T00:08:57;9.40;99.20
34644;DHT22;26931;43.498;-1.506;2023-02-01T00:11:23;9.40;99.20
34644;DHT22;26931;43.498;-1.506;2023-02-01T00:13:49;9.40;99.20
34644;DHT22;26931;43.498;-1.506;2023-02-01T00:16:18;9.30;99.20
34644;DHT22;26931;43.498;-1.506;2023-02-01T00:18:45;9.40;99.20
34644;DHT22;26931;43.498;-1.506;2023-02-01T00:21:11;9.50;99.20
34644;DHT22;26931;43.498;-1.506;2023-02-01T00:23:36;9.50;99.30
34644;DHT22;26931;43.498;-1.506;2023-02-01T00:26:04;9.50;99.30
34644;DHT22;26931;43.498;-1.506;2023-02-01T00:28:30;9.40;99.30
34644;DHT22;26931;43.498;-1.506;2023-02-01T00:30:59;9.40;99.30
34644;DHT22;26931;43.498;-1.506;2023-02-01T00:33:25;9.40;99.40
34644;DHT22;26931;43.498;-1.506;2023-02-01T00:35:55;9.50;99.40
34644;DHT22;26931;43.498;-1.506;2023-02-01T00:38:21;9.40;99.30
34644;DHT22;26931;43.498;-1.506;2023-02-01T00:40:47;9.40;99.30
34644;DHT22;26931;43.498;-1.506;2023-02-01T00:43:13;9.40;99.30
34644;DHT22;26931;43.498;-1.506;2023-02-01T00:45:38;9.40;99.30
34644;DHT22;26931;43.498;-1.506;2023-02-01T00:48:04;9.40;99.40
34644;DHT22;26931;43.498;-1.506;2023-02-01T00:50:30;9.40;99.40
34644;DHT22;26931;43.498;-1.506;2023-02-01T00:52:55;9.40;99.30
34644;DHT22;26931;43.498;-1.506;2023-02-01T00:55:21;9.40;99.40
34644;DHT22;26931;43.498;-1.506;2023-02-01T00:57:46;9.40;99.70
34644;DHT22;26931;43.498;-1.506;2023-02-01T01:00:12;9.40;99.40
34644;DHT22;26931;43.498;-1.506;2023-02-01T01:02:38;9.40;99.40
34644;DHT22;26931;43.498;-1.506;2023-02-01T01:05:03;9.40;99.40
34644;DHT22;26931;43.498;-1.506;2023-02-01T01:07:29;9.40;99.40
34644;DHT22;26931;43.498;-1.506;2023-02-01T01:09:54;9.40;99.30
34644;DHT22;26931;43.498;-1.506;2023-02-01T01:12:20;9.40;99.30
34644;DHT22;26931;43.498;-1.506;2023-02-01T01:14:46;9.40;99.30
34644;DHT22;26931;43.498;-1.506;2023-02-01T01:17:11;9.20;99.30
34644;DHT22;26931;43.498;-1.506;2023-02-01T01:19:37;9.30;99.30
34644;DHT22;26931;43.498;-1.506;2023-02-01T01:22:02;9.40;99.40
34644;DHT22;26931;43.498;-1.506;2023-02-01T01:24:28;9.30;99.30
34644;DHT22;26931;43.498;-1.506;2023-02-01T01:26:54;9.40;99.30
34644;DHT22;26931;43.498;-1.506;2023-02-01T01:29:20;9.40;99.30
34644;DHT22;26931;43.498;-1.506;2023-02-01T01:31:45;9.30;99.30
34644;DHT22;26931;43.498;-1.506;2023-02-01T01:34:11;9.30;99.30
34644;DHT22;26931;43.498;-1.506;2023-02-01T01:36:37;9.30;99.20
34644;DHT22;26931;43.498;-1.506;2023-02-01T01:39:03;9.40;99.30
34644;DHT22;26931;43.498;-1.506;2023-02-01T01:41:29;9.30;99.30
34644;DHT22;26931;43.498;-1.506;2023-02-01T01:43:57;9.30;99.30
34644;DHT22;26931;43.498;-1.506;2023-02-01T01:46:30;9.30;99.20
34644;DHT22;26931;43.498;-1.506;2023-02-01T01:49:19;9.30;99.30
34644;DHT22;26931;43.498;-1.506;2023-02-01T01:51:49;9.40;99.30
34644;DHT22;26931;43.498;-1.506;2023-02-01T01:54:17;9.30;99.20
34644;DHT22;26931;43.498;-1.506;2023-02-01T01:56:45;9.30;99.20
34644;DHT22;26931;43.498;-1.506;2023-02-01T01:59:12;9.30;99.20
34644;DHT22;26931;43.498;-1.506;2023-02-01T02:01:38;9.30;99.30
34644;DHT22;26931;43.498;-1.506;2023-02-01T02:04:04;9.30;99.20
34644;DHT22;26931;43.498;-1.506;2023-02-01T02:06:32;9.30;99.20
34644;DHT22;26931;43.498;-1.506;2023-02-01T02:08:59;9.40;99.20
34644;DHT22;26931;43.498;-1.506;2023-02-01T02:11:25;9.30;99.10
34644;DHT22;26931;43.498;-1.506;2023-02-01T02:13:52;9.30;99.20
34644;DHT22;26931;43.498;-1.506;2023-02-01T02:16:31;9.30;99.20
34644;DHT22;26931;43.498;-1.506;2023-02-01T02:24:16;9.30;99.10
34644;DHT22;26931;43.498;-1.506;2023-02-01T02:34:34;9.30;99.20
34644;DHT22;26931;43.498;-1.506;2023-02-01T02:37:07;9.30;99.20
34644;DHT22;26931;43.498;-1.506;2023-02-01T02:45:28;9.30;99.20
34644;DHT22;26931;43.498;-1.506;2023-02-01T02:48:17;9.40;99.20
34644;DHT22;26931;43.498;-1.506;2023-02-01T02:53:32;9.10;99.40
34644;DHT22;26931;43.498;-1.506;2023-02-01T02:56:18;9.30;99.20
34644;DHT22;26931;43.498;-1.506;2023-02-01T02:59:04;9.30;99.30
34644;DHT22;26931;43.498;-1.506;2023-02-01T03:01:49;9.30;99.30
34644;DHT22;26931;43.498;-1.506;2023-02-01T03:04:33;9.30;99.30
34644;DHT22;26931;43.498;-1.506;2023-02-01T03:07:10;9.30;99.30
34644;DHT22;26931;43.498;-1.506;2023-02-01T03:09:37;9.30;99.30
34644;DHT22;26931;43.498;-1.506;2023-02-01T03:12:08;9.30;99.30
34644;DHT22;26931;43.498;-1.506;2023-02-01T03:14:57;9.40;99.40
34644;DHT22;26931;43.498;-1.506;2023-02-01T03:17:27;9.30;99.30
34644;DHT22;26931;43.498;-1.506;2023-02-01T03:19:55;9.40;99.30
34644;DHT22;26931;43.498;-1.506;2023-02-01T03:22:24;9.30;99.30
34644;DHT22;26931;43.498;-1.506;2023-02-01T03:24:56;9.40;99.30
34644;DHT22;26931;43.498;-1.506;2023-02-01T03:27:30;9.40;99.30
34644;DHT22;26931;43.498;-1.506;2023-02-01T03:32:25;9.30;99.20
34644;DHT22;26931;43.498;-1.506;2023-02-01T03:34:51;9.40;99.30
34644;DHT22;26931;43.498;-1.506;2023-02-01T03:37:27;9.40;99.30
34644;DHT22;26931;43.498;-1.506;2023-02-01T03:39:56;9.40;99.30
34644;DHT22;26931;43.498;-1.506;2023-02-01T03:42:27;9.40;99.30
34644;DHT22;26931;43.498;-1.506;2023-02-01T03:44:57;9.40;99.30
34644;DHT22;26931;43.498;-1.506;2023-02-01T03:47:27;9.40;99.30
34644;DHT22;26931;43.498;-1.506;2023-02-01T03:52:22;9.40;99.30
34644;DHT22;26931;43.498;-1.506;2023-02-01T03:54:49;9.30;99.30
34644;DHT22;26931;43.498;-1.506;2023-02-01T03:57:16;9.60;99.40
34644;DHT22;26931;43.498;-1.506;2023-02-01T03:59:45;9.50;99.30
34644;DHT22;26931;43.498;-1.506;2023-02-01T04:02:11;9.40;99.30
34644;DHT22;26931;43.498;-1.506;2023-02-01T04:04:37;9.40;99.30
34644;DHT22;26931;43.498;-1.506;2023-02-01T04:07:03;9.40;99.40
34644;DHT22;26931;43.498;-1.506;2023-02-01T04:09:29;9.40;99.40
34644;DHT22;26931;43.498;-1.506;2023-02-01T04:11:54;9.40;99.40
34644;DHT22;26931;43.498;-1.506;2023-02-01T04:14:20;9.40;99.30
34644;DHT22;26931;43.498;-1.506;2023-02-01T04:16:46;9.30;99.20
34644;DHT22;26931;43.498;-1.506;2023-02-01T04:19:11;9.40;99.30
34644;DHT22;26931;43.498;-1.506;2023-02-01T04:21:37;9.40;99.30
34644;DHT22;26931;43.498;-1.506;2023-02-01T04:24:03;9.40;99.30
34644;DHT22;26931;43.498;-1.506;2023-02-01T04:26:29;9.40;99.40
34644;DHT22;26931;43.498;-1.506;2023-02-01T04:28:55;9.30;99.40
34644;DHT22;26931;43.498;-1.506;2023-02-01T04:31:20;9.40;99.50
34644;DHT22;26931;43.498;-1.506;2023-02-01T04:33:53;9.40;99.70
34644;DHT22;26931;43.498;-1.506;2023-02-01T04:36:19;9.30;99.70
34644;DHT22;26931;43.498;-1.506;2023-02-01T04:38:48;9.30;99.80
34644;DHT22;26931;43.498;-1.506;2023-02-01T04:41:14;9.40;99.80
34644;DHT22;26931;43.498;-1.506;2023-02-01T04:43:41;9.40;99.90
34644;DHT22;26931;43.498;-1.506;2023-02-01T04:46:11;9.30;99.80
34644;DHT22;26931;43.498;-1.506;2023-02-01T04:48:37;9.40;99.90
34644;DHT22;26931;43.498;-1.506;2023-02-01T04:51:03;9.50;99.90
34644;DHT22;26931;43.498;-1.506;2023-02-01T04:53:28;9.40;99.90
34644;DHT22;26931;43.498;-1.506;2023-02-01T04:55:55;9.50;99.90
34644;DHT22;26931;43.498;-1.506;2023-02-01T04:58:21;9.50;99.90
34644;DHT22;26931;43.498;-1.506;2023-02-01T05:00:47;9.50;99.90
34644;DHT22;26931;43.498;-1.506;2023-02-01T05:03:13;9.50;99.90
34644;DHT22;26931;43.498;-1.506;2023-02-01T05:05:38;9.50;99.90
34644;DHT22;26931;43.498;-1.506;2023-02-01T05:08:04;9.50;99.90
34644;DHT22;26931;43.498;-1.506;2023-02-01T05:10:30;9.40;99.90
34644;DHT22;26931;43.498;-1.506;2023-02-01T05:12:55;9.50;99.90
34644;DHT22;26931;43.498;-1.506;2023-02-01T05:15:39;9.60;99.90
34644;DHT22;26931;43.498;-1.506;2023-02-01T05:18:05;9.60;99.90
34644;DHT22;26931;43.498;-1.506;2023-02-01T05:20:31;9.70;99.90
34644;DHT22;26931;43.498;-1.506;2023-02-01T05:22:56;9.60;99.90
34644;DHT22;26931;43.498;-1.506;2023-02-01T05:25:22;9.70;99.90
34644;DHT22;26931;43.498;-1.506;2023-02-01T05:27:48;9.70;99.90
34644;DHT22;26931;43.498;-1.506;2023-02-01T05:30:13;9.70;99.90
34644;DHT22;26931;43.498;-1.506;2023-02-01T05:32:39;9.70;99.90
34644;DHT22;26931;43.498;-1.506;2023-02-01T05:35:05;9.70;99.90
34644;DHT22;26931;43.498;-1.506;2023-02-01T05:37:31;9.70;99.90
34644;DHT22;26931;43.498;-1.506;2023-02-01T05:39:56;9.80;99.90
34644;DHT22;26931;43.498;-1.506;2023-02-01T05:42:22;9.60;99.90
34644;DHT22;26931;43.498;-1.506;2023-02-01T05:44:48;9.70;99.90
34644;DHT22;26931;43.498;-1.506;2023-02-01T05:47:13;9.80;99.90
34644;DHT22;26931;43.498;-1.506;2023-02-01T05:49:39;9.50;99.90
34644;DHT22;26931;43.498;-1.506;2023-02-01T05:52:05;9.50;99.90
34644;DHT22;26931;43.498;-1.506;2023-02-01T05:54:30;9.60;99.90
34644;DHT22;26931;43.498;-1.506;2023-02-01T05:56:56;9.60;99.90
34644;DHT22;26931;43.498;-1.506;2023-02-01T05:59:22;9.60;99.90
34644;DHT22;26931;43.498;-1.506;2023-02-01T06:01:48;9.60;99.90
34644;DHT22;26931;43.498;-1.506;2023-02-01T06:04:14;9.60;99.90
34644;DHT22;26931;43.498;-1.506;2023-02-01T06:06:40;9.50;99.90
34644;DHT22;26931;43.498;-1.506;2023-02-01T06:09:05;9.60;99.90
34644;DHT22;26931;43.498;-1.506;2023-02-01T06:11:31;9.70;99.90
34644;DHT22;26931;43.498;-1.506;2023-02-01T06:13:56;9.60;99.90
34644;DHT22;26931;43.498;-1.506;2023-02-01T06:16:22;9.50;99.90
34644;DHT22;26931;43.498;-1.506;2023-02-01T06:18:48;9.60;99.90
34644;DHT22;26931;43.498;-1.506;2023-02-01T06:21:14;9.60;99.90
34644;DHT22;26931;43.498;-1.506;2023-02-01T06:23:52;9.60;99.90
34644;DHT22;26931;43.498;-1.506;2023-02-01T06:26:18;9.70;99.90
34644;DHT22;26931;43.498;-1.506;2023-02-01T06:28:44;9.60;99.90
34644;DHT22;26931;43.498;-1.506;2023-02-01T06:31:10;9.70;99.90
34644;DHT22;26931;43.498;-1.506;2023-02-01T06:33:37;9.70;99.90
34644;DHT22;26931;43.498;-1.506;2023-02-01T06:36:04;9.60;99.90
34644;DHT22;26931;43.498;-1.506;2023-02-01T06:38:31;9.60;99.90
34644;DHT22;26931;43.498;-1.506;2023-02-01T06:40:57;9.70;99.90
34644;DHT22;26931;43.498;-1.506;2023-02-01T06:43:24;9.60;99.90
34644;DHT22;26931;43.498;-1.506;2023-02-01T06:45:50;9.60;99.90
34644;DHT22;26931;43.498;-1.506;2023-02-01T06:48:16;9.50;99.90
34644;DHT22;26931;43.498;-1.506;2023-02-01T06:50:42;9.50;99.90
34644;DHT22;26931;43.498;-1.506;2023-02-01T06:53:08;9.50;99.90
34644;DHT22;26931;43.498;-1.506;2023-02-01T06:55:34;9.50;99.90
34644;DHT22;26931;43.498;-1.506;2023-02-01T06:58:00;9.50;99.90
34644;DHT22;26931;43.498;-1.506;2023-02-01T07:00:27;9.50;99.90
34644;DHT22;26931;43.498;-1.506;2023-02-01T07:02:53;9.40;99.90
34644;DHT22;26931;43.498;-1.506;2023-02-01T07:05:18;9.50;99.90
34644;DHT22;26931;43.498;-1.506;2023-02-01T07:07:44;9.50;99.90
34644;DHT22;26931;43.498;-1.506;2023-02-01T07:10:10;9.50;99.90
34644;DHT22;26931;43.498;-1.506;2023-02-01T07:12:36;9.50;99.90
34644;DHT22;26931;43.498;-1.506;2023-02-01T07:15:02;9.50;99.90
34644;DHT22;26931;43.498;-1.506;2023-02-01T07:17:28;9.40;99.90
34644;DHT22;26931;43.498;-1.506;2023-02-01T07:19:55;9.40;99.90
34644;DHT22;26931;43.498;-1.506;2023-02-01T07:22:20;9.40;99.90
34644;DHT22;26931;43.498;-1.506;2023-02-01T07:24:46;9.40;99.90
34644;DHT22;26931;43.498;-1.506;2023-02-01T07:27:12;9.40;99.90
34644;DHT22;26931;43.498;-1.506;2023-02-01T07:29:38;9.40;99.90
34644;DHT22;26931;43.498;-1.506;2023-02-01T07:32:04;9.40;99.90
34644;DHT22;26931;43.498;-1.506;2023-02-01T07:34:30;9.30;99.90
34644;DHT22;26931;43.498;-1.506;2023-02-01T07:36:59;9.40;99.90
34644;DHT22;26931;43.498;-1.506;2023-02-01T07:39:28;9.40;99.90
34644;DHT22;26931;43.498;-1.506;2023-02-01T07:41:54;9.40;99.90
34644;DHT22;26931;43.498;-1.506;2023-02-01T07:44:20;9.40;99.90
34644;DHT22;26931;43.498;-1.506;2023-02-01T07:46:49;9.40;99.90
34644;DHT22;26931;43.498;-1.506;2023-02-01T07:49:14;9.40;99.90
34644;DHT22;26931;43.498;-1.506;2023-02-01T07:51:40;9.40;99.90
34644;DHT22;26931;43.498;-1.506;2023-02-01T07:54:06;9.40;99.90
34644;DHT22;26931;43.498;-1.506;2023-02-01T07:56:32;9.40;99.90
34644;DHT22;26931;43.498;-1.506;2023-02-01T07:58:57;9.50;99.90
34644;DHT22;26931;43.498;-1.506;2023-02-01T08:01:25;9.50;99.90
34644;DHT22;26931;43.498;-1.506;2023-02-01T08:03:52;9.50;99.90
34644;DHT22;26931;43.498;-1.506;2023-02-01T08:06:18;9.50;99.90
34644;DHT22;26931;43.498;-1.506;2023-02-01T08:08:48;9.50;99.90
34644;DHT22;26931;43.498;-1.506;2023-02-01T08:11:14;9.60;99.90
34644;DHT22;26931;43.498;-1.506;2023-02-01T08:13:39;9.60;99.90
34644;DHT22;26931;43.498;-1.506;2023-02-01T08:16:06;9.60;99.90
34644;DHT22;26931;43.498;-1.506;2023-02-01T08:18:35;9.60;99.90
34644;DHT22;26931;43.498;-1.506;2023-02-01T08:21:05;9.60;99.90
34644;DHT22;26931;43.498;-1.506;2023-02-01T08:23:32;9.60;99.90
34644;DHT22;26931;43.498;-1.506;2023-02-01T08:26:12;9.60;99.90
34644;DHT22;26931;43.498;-1.506;2023-02-01T08:28:39;9.70;99.90
34644;DHT22;26931;43.498;-1.506;2023-02-01T08:31:06;9.70;99.90
34644;DHT22;26931;43.498;-1.506;2023-02-01T08:33:32;9.70;99.90
34644;DHT22;26931;43.498;-1.506;2023-02-01T08:36:00;9.70;99.90
34644;DHT22;26931;43.498;-1.506;2023-02-01T08:38:25;9.70;99.90
34644;DHT22;26931;43.498;-1.506;2023-02-01T08:40:51;9.80;99.90
34644;DHT22;26931;43.498;-1.506;2023-02-01T08:43:18;9.70;99.90
34644;DHT22;26931;43.498;-1.506;2023-02-01T08:45:43;9.80;99.90
34644;DHT22;26931;43.498;-1.506;2023-02-01T08:48:09;9.70;99.90
34644;DHT22;26931;43.498;-1.506;2023-02-01T08:50:35;9.80;99.90
34644;DHT22;26931;43.498;-1.506;2023-02-01T08:53:01;9.80;99.90
34644;DHT22;26931;43.498;-1.506;2023-02-01T08:55:27;9.90;99.90
34644;DHT22;26931;43.498;-1.506;2023-02-01T08:57:53;9.90;99.90
34644;DHT22;26931;43.498;-1.506;2023-02-01T09:00:22;10.10;99.90
34644;DHT22;26931;43.498;-1.506;2023-02-01T09:02:48;10.00;99.90
34644;DHT22;26931;43.498;-1.506;2023-02-01T09:05:14;10.00;99.90
34644;DHT22;26931;43.498;-1.506;2023-02-01T09:07:41;9.90;99.90
34644;DHT22;26931;43.498;-1.506;2023-02-01T09:10:07;10.00;99.90
34644;DHT22;26931;43.498;-1.506;2023-02-01T09:12:33;10.10;99.90
34644;DHT22;26931;43.498;-1.506;2023-02-01T09:14:59;10.10;99.90
34644;DHT22;26931;43.498;-1.506;2023-02-01T09:17:28;10.10;99.90
34644;DHT22;26931;43.498;-1.506;2023-02-01T09:19:54;10.10;99.90
34644;DHT22;26931;43.498;-1.506;2023-02-01T09:22:20;10.30;99.90
34644;DHT22;26931;43.498;-1.506;2023-02-01T09:24:46;10.20;99.90
34644;DHT22;26931;43.498;-1.506;2023-02-01T09:27:12;10.20;99.90
34644;DHT22;26931;43.498;-1.506;2023-02-01T09:29:38;10.30;99.90
34644;DHT22;26931;43.498;-1.506;2023-02-01T09:32:04;10.30;99.90
34644;DHT22;26931;43.498;-1.506;2023-02-01T09:34:30;10.30;99.90
34644;DHT22;26931;43.498;-1.506;2023-02-01T09:36:56;10.50;99.90
34644;DHT22;26931;43.498;-1.506;2023-02-01T09:39:22;10.30;99.90
34644;DHT22;26931;43.498;-1.506;2023-02-01T09:46:38;10.30;99.90
34644;DHT22;26931;43.498;-1.506;2023-02-01T09:49:08;10.40;99.90
34644;DHT22;26931;43.498;-1.506;2023-02-01T09:51:36;10.50;99.90
34644;DHT22;26931;43.498;-1.506;2023-02-01T09:56:48;10.50;99.90
34644;DHT22;26931;43.498;-1.506;2023-02-01T10:01:43;10.50;99.90
34644;DHT22;26931;43.498;-1.506;2023-02-01T10:04:10;10.50;99.90
34644;DHT22;26931;43.498;-1.506;2023-02-01T10:11:53;10.50;99.90
34644;DHT22;26931;43.498;-1.506;2023-02-01T10:17:04;10.60;99.90
34644;DHT22;26931;43.498;-1.506;2023-02-01T10:19:45;10.60;99.90
34644;DHT22;26931;43.498;-1.506;2023-02-01T10:22:46;10.60;99.90
34644;DHT22;26931;43.498;-1.506;2023-02-01T10:25:07;10.60;99.90
34644;DHT22;26931;43.498;-1.506;2023-02-01T10:27:38;10.60;99.80
34644;DHT22;26931;43.498;-1.506;2023-02-01T10:32:38;10.60;99.80
34644;DHT22;26931;43.498;-1.506;2023-02-01T10:35:10;10.70;99.70
34644;DHT22;26931;43.498;-1.506;2023-02-01T10:37:39;10.90;99.70
34644;DHT22;26931;43.498;-1.506;2023-02-01T10:40:12;10.80;99.60
34644;DHT22;26931;43.498;-1.506;2023-02-01T10:42:40;10.80;99.50
34644;DHT22;26931;43.498;-1.506;2023-02-01T10:45:06;10.80;99.40
34644;DHT22;26931;43.498;-1.506;2023-02-01T10:47:32;10.80;99.30
34644;DHT22;26931;43.498;-1.506;2023-02-01T10:50:02;10.70;99.20
34644;DHT22;26931;43.498;-1.506;2023-02-01T10:52:34;10.80;99.20
34644;DHT22;26931;43.498;-1.506;2023-02-01T10:55:25;10.80;99.10
34644;DHT22;26931;43.498;-1.506;2023-02-01T10:57:58;10.90;99.00
34644;DHT22;26931;43.498;-1.506;2023-02-01T11:00:24;10.90;98.90
34644;DHT22;26931;43.498;-1.506;2023-02-01T11:02:51;10.80;98.70
34644;DHT22;26931;43.498;-1.506;2023-02-01T11:05:17;10.90;98.70
34644;DHT22;26931;43.498;-1.506;2023-02-01T11:07:51;10.90;98.90
34644;DHT22;26931;43.498;-1.506;2023-02-01T11:10:39;10.90;98.50
34644;DHT22;26931;43.498;-1.506;2023-02-01T11:13:08;10.90;98.40
34644;DHT22;26931;43.498;-1.506;2023-02-01T11:15:38;10.90;98.30
34644;DHT22;26931;43.498;-1.506;2023-02-01T11:18:14;10.90;98.20
34644;DHT22;26931;43.498;-1.506;2023-02-01T11:20:41;10.90;98.20
34644;DHT22;26931;43.498;-1.506;2023-02-01T11:23:18;10.80;98.00
34644;DHT22;26931;43.498;-1.506;2023-02-01T11:25:56;10.90;98.00
34644;DHT22;26931;43.498;-1.506;2023-02-01T11:28:26;11.00;98.00
34644;DHT22;26931;43.498;-1.506;2023-02-01T11:30:53;11.00;97.90
34644;DHT22;26931;43.498;-1.506;2023-02-01T11:33:20;11.00;97.80
34644;DHT22;26931;43.498;-1.506;2023-02-01T11:35:50;11.10;97.80
34644;DHT22;26931;43.498;-1.506;2023-02-01T11:38:22;11.10;97.70
34644;DHT22;26931;43.498;-1.506;2023-02-01T11:40:48;11.10;97.90
34644;DHT22;26931;43.498;-1.506;2023-02-01T11:43:19;11.20;97.40
34644;DHT22;26931;43.498;-1.506;2023-02-01T11:45:57;11.20;97.30
34644;DHT22;26931;43.498;-1.506;2023-02-01T11:48:24;11.20;97.20
34644;DHT22;26931;43.498;-1.506;2023-02-01T11:56:16;11.40;96.70
34644;DHT22;26931;43.498;-1.506;2023-02-01T12:01:12;11.30;96.40
34644;DHT22;26931;43.498;-1.506;2023-02-01T12:09:05;11.30;96.20
34644;DHT22;26931;43.498;-1.506;2023-02-01T12:14:24;11.40;96.00
34644;DHT22;26931;43.498;-1.506;2023-02-01T12:19:23;11.50;95.80
34644;DHT22;26931;43.498;-1.506;2023-02-01T12:29:34;11.50;95.30
34644;DHT22;26931;43.498;-1.506;2023-02-01T12:40:20;11.60;94.80
34644;DHT22;26931;43.498;-1.506;2023-02-01T12:42:53;11.50;94.60
34644;DHT22;26931;43.498;-1.506;2023-02-01T12:47:55;11.60;94.30
34644;DHT22;26931;43.498;-1.506;2023-02-01T12:50:24;11.60;94.10
34644;DHT22;26931;43.498;-1.506;2023-02-01T12:52:52;11.60;93.90
34644;DHT22;26931;43.498;-1.506;2023-02-01T12:55:22;11.60;93.70
34644;DHT22;26931;43.498;-1.506;2023-02-01T12:57:58;11.70;93.60
34644;DHT22;26931;43.498;-1.506;2023-02-01T13:02:59;11.80;93.30
34644;DHT22;26931;43.498;-1.506;2023-02-01T13:05:31;11.90;93.20
34644;DHT22;26931;43.498;-1.506;2023-02-01T13:10:38;11.70;92.70
34644;DHT22;26931;43.498;-1.506;2023-02-01T13:13:21;11.70;92.60
34644;DHT22;26931;43.498;-1.506;2023-02-01T13:15:49;11.70;92.30
34644;DHT22;26931;43.498;-1.506;2023-02-01T13:18:19;11.70;92.20
34644;DHT22;26931;43.498;-1.506;2023-02-01T13:21:01;11.70;92.10
34644;DHT22;26931;43.498;-1.506;2023-02-01T13:23:30;11.80;92.00
34644;DHT22;26931;43.498;-1.506;2023-02-01T13:25:57;11.80;91.90
34644;DHT22;26931;43.498;-1.506;2023-02-01T13:33:37;11.80;91.50
34644;DHT22;26931;43.498;-1.506;2023-02-01T13:36:13;11.80;91.40
34644;DHT22;26931;43.498;-1.506;2023-02-01T13:41:31;11.90;91.20
34644;DHT22;26931;43.498;-1.506;2023-02-01T13:43:59;11.80;91.20
34644;DHT22;26931;43.498;-1.506;2023-02-01T13:46:26;12.10;91.10
34644;DHT22;26931;43.498;-1.506;2023-02-01T13:48:54;12.00;91.10
34644;DHT22;26931;43.498;-1.506;2023-02-01T13:56:55;12.00;90.70
34644;DHT22;26931;43.498;-1.506;2023-02-01T14:04:49;11.90;90.00
34644;DHT22;26931;43.498;-1.506;2023-02-01T14:07:20;12.00;89.70
34644;DHT22;26931;43.498;-1.506;2023-02-01T14:09:46;12.00;89.30
34644;DHT22;26931;43.498;-1.506;2023-02-01T14:15:17;11.90;88.80
34644;DHT22;26931;43.498;-1.506;2023-02-01T14:17:43;12.00;88.60
34644;DHT22;26931;43.498;-1.506;2023-02-01T14:22:59;11.80;88.30
34644;DHT22;26931;43.498;-1.506;2023-02-01T14:25:26;11.90;87.60
34644;DHT22;26931;43.498;-1.506;2023-02-01T14:27:57;11.90;87.40
34644;DHT22;26931;43.498;-1.506;2023-02-01T14:30:23;11.90;87.30
34644;DHT22;26931;43.498;-1.506;2023-02-01T14:32:48;11.90;87.30
34644;DHT22;26931;43.498;-1.506;2023-02-01T14:35:18;11.90;86.90
34644;DHT22;26931;43.498;-1.506;2023-02-01T14:37:45;11.90;86.50
34644;DHT22;26931;43.498;-1.506;2023-02-01T14:42:45;11.90;86.30
34644;DHT22;26931;43.498;-1.506;2023-02-01T14:47:53;11.90;87.30
34644;DHT22;26931;43.498;-1.506;2023-02-01T14:55:38;11.90;86.70
34644;DHT22;26931;43.498;-1.506;2023-02-01T14:58:06;11.90;86.50
34644;DHT22;26931;43.498;-1.506;2023-02-01T15:00:35;11.80;86.40
34644;DHT22;26931;43.498;-1.506;2023-02-01T15:03:15;11.90;86.40
34644;DHT22;26931;43.498;-1.506;2023-02-01T15:05:42;11.90;86.40
34644;DHT22;26931;43.498;-1.506;2023-02-01T15:10:57;12.00;86.80
34644;DHT22;26931;43.498;-1.506;2023-02-01T15:13:25;11.90;86.00
34644;DHT22;26931;43.498;-1.506;2023-02-01T15:16:01;11.90;86.10
34644;DHT22;26931;43.498;-1.506;2023-02-01T15:18:27;12.00;86.00
34644;DHT22;26931;43.498;-1.506;2023-02-01T15:20:57;11.90;85.50
34644;DHT22;26931;43.498;-1.506;2023-02-01T15:23:23;11.90;85.40
34644;DHT22;26931;43.498;-1.506;2023-02-01T15:25:49;11.90;85.10
34644;DHT22;26931;43.498;-1.506;2023-02-01T15:28:15;11.90;85.10
34644;DHT22;26931;43.498;-1.506;2023-02-01T15:30:51;11.90;84.90
34644;DHT22;26931;43.498;-1.506;2023-02-01T15:33:17;11.90;84.80
34644;DHT22;26931;43.498;-1.506;2023-02-01T15:35:45;11.80;84.60
34644;DHT22;26931;43.498;-1.506;2023-02-01T15:38:45;11.90;84.70
34644;DHT22;26931;43.498;-1.506;2023-02-01T15:46:32;12.00;84.80
34644;DHT22;26931;43.498;-1.506;2023-02-01T15:49:01;11.90;84.90
34644;DHT22;26931;43.498;-1.506;2023-02-01T15:51:28;11.90;84.90
34644;DHT22;26931;43.498;-1.506;2023-02-01T15:53:58;11.80;85.80
34644;DHT22;26931;43.498;-1.506;2023-02-01T15:56:25;11.90;85.20
34644;DHT22;26931;43.498;-1.506;2023-02-01T15:58:56;11.80;85.20
34644;DHT22;26931;43.498;-1.506;2023-02-01T16:01:23;11.90;85.30
34644;DHT22;26931;43.498;-1.506;2023-02-01T16:03:48;11.80;85.20
34644;DHT22;26931;43.498;-1.506;2023-02-01T16:11:26;11.80;85.10
34644;DHT22;26931;43.498;-1.506;2023-02-01T16:13:53;11.80;84.70
34644;DHT22;26931;43.498;-1.506;2023-02-01T16:16:18;11.80;84.50
34644;DHT22;26931;43.498;-1.506;2023-02-01T16:18:44;11.80;84.30
34644;DHT22;26931;43.498;-1.506;2023-02-01T16:21:10;11.80;84.20
34644;DHT22;26931;43.498;-1.506;2023-02-01T16:23:36;11.70;84.00
34644;DHT22;26931;43.498;-1.506;2023-02-01T16:26:02;11.70;83.70
34644;DHT22;26931;43.498;-1.506;2023-02-01T16:28:28;11.70;83.50
34644;DHT22;26931;43.498;-1.506;2023-02-01T16:30:53;11.80;83.50
34644;DHT22;26931;43.498;-1.506;2023-02-01T16:33:20;11.70;83.50
34644;DHT22;26931;43.498;-1.506;2023-02-01T16:35:47;11.70;83.50
34644;DHT22;26931;43.498;-1.506;2023-02-01T16:38:14;11.70;83.50
34644;DHT22;26931;43.498;-1.506;2023-02-01T16:40:41;11.70;83.50
34644;DHT22;26931;43.498;-1.506;2023-02-01T16:43:14;11.70;83.50
34644;DHT22;26931;43.498;-1.506;2023-02-01T16:45:41;11.60;83.50
34644;DHT22;26931;43.498;-1.506;2023-02-01T16:48:16;11.60;83.40
34644;DHT22;26931;43.498;-1.506;2023-02-01T16:50:43;11.60;83.30
34644;DHT22;26931;43.498;-1.506;2023-02-01T16:53:11;11.60;83.30
34644;DHT22;26931;43.498;-1.506;2023-02-01T16:55:39;11.60;83.20
34644;DHT22;26931;43.498;-1.506;2023-02-01T16:58:05;11.60;83.00
34644;DHT22;26931;43.498;-1.506;2023-02-01T17:00:31;11.60;83.00
34644;DHT22;26931;43.498;-1.506;2023-02-01T17:02:58;11.80;83.10
34644;DHT22;26931;43.498;-1.506;2023-02-01T17:05:24;11.70;83.10
34644;DHT22;26931;43.498;-1.506;2023-02-01T17:07:50;11.60;83.00
34644;DHT22;26931;43.498;-1.506;2023-02-01T17:10:21;11.50;82.90
34644;DHT22;26931;43.498;-1.506;2023-02-01T17:12:47;11.50;83.00
34644;DHT22;26931;43.498;-1.506;2023-02-01T17:15:13;11.50;82.90
34644;DHT22;26931;43.498;-1.506;2023-02-01T17:17:39;11.50;82.80
34644;DHT22;26931;43.498;-1.506;2023-02-01T17:20:09;11.50;82.80
34644;DHT22;26931;43.498;-1.506;2023-02-01T17:22:36;11.40;82.70
34644;DHT22;26931;43.498;-1.506;2023-02-01T17:25:02;11.40;82.70
34644;DHT22;26931;43.498;-1.506;2023-02-01T17:27:29;11.40;82.70
34644;DHT22;26931;43.498;-1.506;2023-02-01T17:29:55;11.30;82.60
34644;DHT22;26931;43.498;-1.506;2023-02-01T17:32:23;11.40;82.60
34644;DHT22;26931;43.498;-1.506;2023-02-01T17:34:49;11.30;82.70
34644;DHT22;26931;43.498;-1.506;2023-02-01T17:37:24;11.40;82.80
34644;DHT22;26931;43.498;-1.506;2023-02-01T17:39:50;11.30;82.90
34644;DHT22;26931;43.498;-1.506;2023-02-01T17:42:26;11.30;82.90
34644;DHT22;26931;43.498;-1.506;2023-02-01T17:44:54;11.30;83.10
34644;DHT22;26931;43.498;-1.506;2023-02-01T17:47:20;11.20;83.00
34644;DHT22;26931;43.498;-1.506;2023-02-01T17:49:46;11.20;83.10